Time;durP1;ratioP1;P1;durP2;ratioP2;P2;SDS_P1;SDS_P2;PMS_P1;PMS_P2;Temp;Humidity;BMP_temperature;BMP_pressure;BME280_temperature;BME280_humidity;BME280_pressure;Samples;Min_cycle;Max_cycle;Signal;HPM_P1;HPM_P2
2023/08/31 00:02:09;;;;;;;3.17;2.97;;;16.80;99.90;;;;;;5219598;28;20541;-43
2023/08/31 00:04:40;;;;;;;3.10;2.60;;;16.80;99.90;;;;;;5210399;28;20203;-43
2023/08/31 00:07:10;;;;;;;2.60;2.47;;;16.80;99.90;;;;;;5221846;28;20475;-44
2023/08/31 00:09:41;;;;;;;2.87;2.67;;;16.60;99.90;;;;;;5204650;28;20249;-44
2023/08/31 00:12:12;;;;;;;7.53;2.93;;;16.50;99.90;;;;;;5216315;28;20237;-44
2023/08/31 00:14:42;;;;;;;13.20;2.70;;;16.50;99.90;;;;;;5229917;28;20192;-43
2023/08/31 00:17:13;;;;;;;3.00;2.80;;;16.40;99.90;;;;;;5211415;28;20190;-43
2023/08/31 00:19:44;;;;;;;3.37;3.07;;;16.50;99.90;;;;;;5218419;28;20267;-43
2023/08/31 00:22:15;;;;;;;2.93;2.80;;;16.40;99.90;;;;;;5231797;28;20214;-44
2023/08/31 00:24:46;;;;;;;4.13;3.50;;;16.40;99.90;;;;;;5201474;28;20461;-45
2023/08/31 00:27:17;;;;;;;3.50;2.80;;;16.40;99.90;;;;;;5214741;28;20627;-44
2023/08/31 00:29:50;;;;;;;2.30;2.30;;;16.40;99.90;;;;;;5233698;28;20452;-44
2023/08/31 00:32:22;;;;;;;3.00;2.40;;;16.30;99.90;;;;;;5215338;28;20472;-44
2023/08/31 00:34:52;;;;;;;2.57;2.43;;;16.30;99.90;;;;;;5224775;28;20826;-42
2023/08/31 00:37:23;;;;;;;2.87;2.77;;;16.40;99.90;;;;;;5226292;28;20451;-43
2023/08/31 00:39:54;;;;;;;3.20;3.00;;;16.30;99.90;;;;;;5241154;28;20230;-43
2023/08/31 00:42:25;;;;;;;2.47;2.37;;;16.30;99.90;;;;;;5221660;28;20189;-42
2023/08/31 00:44:57;;;;;;;2.90;2.70;;;16.30;99.90;;;;;;5225906;28;20472;-43
2023/08/31 00:47:27;;;;;;;2.37;2.27;;;16.30;99.90;;;;;;5218175;28;20452;-43
2023/08/31 00:49:58;;;;;;;2.20;2.20;;;16.30;99.90;;;;;;5228260;28;20957;-43
2023/08/31 00:52:29;;;;;;;2.27;2.07;;;16.30;99.90;;;;;;5214971;28;20184;-43
2023/08/31 00:55:02;;;;;;;2.67;2.57;;;16.40;99.90;;;;;;5241257;28;20568;-43
2023/08/31 00:57:33;;;;;;;5.50;2.20;;;16.30;99.90;;;;;;5213806;28;20230;-44
2023/08/31 01:00:08;;;;;;;2.43;2.33;;;16.30;99.90;;;;;;5216036;28;20464;-44
2023/08/31 01:03:01;;;;;;;2.77;2.53;;;16.20;99.90;;;;;;5220992;28;20681;-43
2023/08/31 01:05:43;;;;;;;2.60;2.50;;;16.20;99.90;;;;;;5222882;28;21062;-43
2023/08/31 01:08:30;;;;;;;3.50;3.20;;;16.10;99.90;;;;;;5232736;28;20460;-43
2023/08/31 01:11:13;;;;;;;2.90;2.80;;;16.10;99.90;;;;;;5236637;28;20457;-42
2023/08/31 01:13:54;;;;;;;3.63;3.43;;;16.00;99.90;;;;;;5226770;28;20944;-42
2023/08/31 01:16:25;;;;;;;3.10;2.90;;;16.00;99.90;;;;;;5237726;28;20528;-42
2023/08/31 01:18:57;;;;;;;4.00;3.30;;;15.90;99.90;;;;;;5217704;28;20905;-43
2023/08/31 01:21:35;;;;;;;3.50;3.40;;;15.90;99.90;;;;;;5211496;28;20515;-42
2023/08/31 01:24:08;;;;;;;3.07;2.97;;;15.80;99.90;;;;;;5214079;28;20446;-43
2023/08/31 01:26:42;;;;;;;3.27;3.10;;;15.80;99.90;;;;;;5208015;28;20467;-44
2023/08/31 01:29:13;;;;;;;3.07;2.97;;;15.90;99.90;;;;;;5217119;28;20528;-44
2023/08/31 01:31:45;;;;;;;4.00;3.80;;;15.90;99.90;;;;;;5227952;28;20468;-43
2023/08/31 01:34:15;;;;;;;3.90;3.70;;;15.90;99.90;;;;;;5212477;28;20207;-44
2023/08/31 01:36:52;;;;;;;11.53;3.73;;;15.90;99.90;;;;;;5216895;28;20440;-43
2023/08/31 01:39:33;;;;;;;3.90;3.70;;;15.90;99.90;;;;;;5213132;28;20445;-43
2023/08/31 01:42:06;;;;;;;3.10;2.90;;;15.90;99.90;;;;;;5217808;28;20445;-43
2023/08/31 01:44:37;;;;;;;3.37;3.27;;;16.00;99.90;;;;;;5216513;28;20447;-43
2023/08/31 01:47:09;;;;;;;3.30;3.20;;;15.90;99.90;;;;;;5216197;28;20437;-43
2023/08/31 01:49:40;;;;;;;3.53;3.33;;;15.90;99.90;;;;;;5204684;28;20776;-43
2023/08/31 01:52:10;;;;;;;3.40;3.07;;;15.90;99.90;;;;;;5213645;28;20431;-43
2023/08/31 01:54:41;;;;;;;3.13;2.97;;;15.80;99.90;;;;;;5240303;28;20954;-42
2023/08/31 01:57:12;;;;;;;4.23;2.90;;;15.80;99.90;;;;;;5214295;28;20179;-43
2023/08/31 01:59:43;;;;;;;3.20;3.00;;;15.70;99.90;;;;;;5239143;28;20729;-42
2023/08/31 02:02:14;;;;;;;2.90;2.40;;;15.70;99.90;;;;;;5226517;28;20186;-44
2023/08/31 02:04:46;;;;;;;2.87;2.77;;;15.60;99.90;;;;;;5216668;28;20199;-44
2023/08/31 02:07:16;;;;;;;2.20;2.10;;;15.50;99.90;;;;;;5212732;28;20525;-44
2023/08/31 02:09:47;;;;;;;2.53;2.23;;;15.40;99.90;;;;;;5225405;28;20537;-43
2023/08/31 02:12:18;;;;;;;2.40;2.30;;;15.40;99.90;;;;;;5223260;28;20550;-43
2023/08/31 02:14:49;;;;;;;2.30;2.20;;;15.20;99.90;;;;;;5221787;28;20188;-43
2023/08/31 02:17:20;;;;;;;2.03;1.93;;;15.10;99.90;;;;;;5224148;28;20187;-42
2023/08/31 02:19:51;;;;;;;1.83;1.83;;;15.10;99.90;;;;;;5230233;28;20457;-44
2023/08/31 02:22:21;;;;;;;1.93;1.87;;;15.10;99.90;;;;;;5241134;28;20191;-45
2023/08/31 02:24:52;;;;;;;1.70;1.70;;;15.10;99.90;;;;;;5225357;28;20464;-43
2023/08/31 02:27:23;;;;;;;1.60;1.60;;;15.00;99.90;;;;;;5218003;28;20198;-43
2023/08/31 02:29:53;;;;;;;1.70;1.70;;;14.90;99.90;;;;;;5237882;28;20202;-43
2023/08/31 02:32:24;;;;;;;1.70;1.70;;;14.90;99.90;;;;;;5220489;28;20176;-44
2023/08/31 02:34:54;;;;;;;1.90;1.80;;;14.80;99.90;;;;;;5221551;28;20183;-43
2023/08/31 02:37:25;;;;;;;1.80;1.70;;;14.80;99.90;;;;;;5212331;28;20191;-43
2023/08/31 02:39:56;;;;;;;1.37;1.37;;;14.70;99.90;;;;;;5237300;28;20195;-43
2023/08/31 02:42:27;;;;;;;1.70;1.70;;;14.70;99.90;;;;;;5214856;28;20543;-44
2023/08/31 02:44:57;;;;;;;2.30;2.20;;;14.60;99.90;;;;;;5235447;28;20214;-43
2023/08/31 02:47:28;;;;;;;1.83;1.73;;;14.60;99.90;;;;;;5214361;28;20217;-43
2023/08/31 02:49:59;;;;;;;2.10;2.00;;;14.60;99.90;;;;;;5223472;28;20210;-43
2023/08/31 02:52:30;;;;;;;2.07;1.97;;;14.60;99.90;;;;;;5216414;28;20185;-43
2023/08/31 02:55:01;;;;;;;2.07;1.97;;;14.50;99.90;;;;;;5222226;28;20449;-43
2023/08/31 02:57:31;;;;;;;2.40;2.30;;;14.50;99.90;;;;;;5236598;28;20187;-42
2023/08/31 03:00:03;;;;;;;2.23;2.03;;;14.50;99.90;;;;;;5222383;28;20219;-43
2023/08/31 03:02:34;;;;;;;2.30;2.00;;;14.40;99.90;;;;;;5222746;28;20211;-43
2023/08/31 03:05:05;;;;;;;2.40;2.03;;;14.40;99.90;;;;;;5228520;28;20493;-43
2023/08/31 03:07:35;;;;;;;1.70;1.60;;;14.50;99.90;;;;;;5216460;28;20191;-43
2023/08/31 03:10:06;;;;;;;2.10;2.00;;;14.50;99.90;;;;;;5213933;28;20198;-42
2023/08/31 03:12:37;;;;;;;2.40;2.20;;;14.40;99.90;;;;;;5222395;28;20201;-43
2023/08/31 03:15:08;;;;;;;1.73;1.67;;;14.40;99.90;;;;;;5217182;28;20525;-43
2023/08/31 03:17:39;;;;;;;1.90;1.80;;;14.40;99.90;;;;;;5217992;28;20175;-43
2023/08/31 03:20:10;;;;;;;2.23;2.23;;;14.40;99.90;;;;;;5210731;28;20453;-43
2023/08/31 03:22:41;;;;;;;1.90;1.90;;;14.40;99.90;;;;;;5222785;28;20194;-43
2023/08/31 03:25:12;;;;;;;2.17;2.10;;;14.40;99.90;;;;;;5214987;28;20470;-43
2023/08/31 03:27:42;;;;;;;2.43;2.23;;;14.40;99.90;;;;;;5229285;28;20183;-43
2023/08/31 03:30:13;;;;;;;2.43;2.33;;;14.40;99.90;;;;;;5224416;28;20280;-43
2023/08/31 03:32:44;;;;;;;1.83;1.83;;;14.30;99.90;;;;;;5235429;28;20184;-44
2023/08/31 03:35:14;;;;;;;2.77;2.67;;;14.30;99.90;;;;;;5218516;28;20239;-44
2023/08/31 03:37:48;;;;;;;1.77;1.67;;;14.30;99.90;;;;;;5221040;28;20206;-45
2023/08/31 03:40:19;;;;;;;1.73;1.73;;;14.30;99.90;;;;;;5216507;28;20210;-43
2023/08/31 03:42:50;;;;;;;2.03;1.93;;;14.30;99.90;;;;;;5210926;28;20449;-43
2023/08/31 03:45:21;;;;;;;5.73;2.17;;;14.30;99.90;;;;;;5212547;28;20264;-43
2023/08/31 03:47:52;;;;;;;1.40;1.40;;;14.40;99.90;;;;;;5236537;28;20214;-43
2023/08/31 03:50:23;;;;;;;1.93;1.83;;;14.40;99.90;;;;;;5230160;28;20858;-43
2023/08/31 03:52:53;;;;;;;1.80;1.70;;;14.40;99.90;;;;;;5221149;28;20666;-43
2023/08/31 03:55:24;;;;;;;3.37;2.10;;;14.40;99.90;;;;;;5219437;28;20217;-43
2023/08/31 03:57:55;;;;;;;1.87;1.77;;;14.50;99.90;;;;;;5221101;28;20179;-43
2023/08/31 04:00:25;;;;;;;2.00;1.80;;;14.50;99.90;;;;;;5217700;28;20577;-42
2023/08/31 04:02:59;;;;;;;2.27;2.23;;;14.50;99.90;;;;;;5219631;28;20258;-43
2023/08/31 04:05:34;;;;;;;3.23;2.93;;;14.50;99.90;;;;;;5210910;28;20231;-43
2023/08/31 04:08:05;;;;;;;1.93;1.90;;;14.50;99.90;;;;;;5218274;28;20964;-42
2023/08/31 04:10:35;;;;;;;3.30;3.07;;;14.50;99.90;;;;;;5216582;28;20496;-43
2023/08/31 04:13:06;;;;;;;3.33;3.13;;;14.50;99.90;;;;;;5226118;28;20473;-42
2023/08/31 04:15:37;;;;;;;3.37;3.07;;;14.40;99.90;;;;;;5214863;28;20199;-42
2023/08/31 04:18:07;;;;;;;3.50;3.20;;;14.30;99.90;;;;;;5210201;28;20191;-43
2023/08/31 04:20:39;;;;;;;6.33;2.77;;;14.30;99.90;;;;;;5219457;28;20214;-43
2023/08/31 04:23:09;;;;;;;3.87;3.57;;;14.30;99.90;;;;;;5220468;28;20186;-43
2023/08/31 04:25:41;;;;;;;4.23;3.93;;;14.30;99.90;;;;;;5210346;28;20826;-45
2023/08/31 04:28:12;;;;;;;5.00;4.50;;;14.30;99.90;;;;;;5233867;28;20179;-43
2023/08/31 04:30:44;;;;;;;8.93;4.57;;;14.20;99.90;;;;;;5196743;28;20851;-43
2023/08/31 04:33:15;;;;;;;4.10;3.90;;;14.20;99.90;;;;;;5235546;28;20700;-43
2023/08/31 04:35:46;;;;;;;4.60;4.30;;;14.20;99.90;;;;;;5217897;28;20441;-45
2023/08/31 04:38:17;;;;;;;6.57;4.60;;;14.20;99.90;;;;;;5218015;28;20439;-46
2023/08/31 04:40:47;;;;;;;5.40;5.00;;;14.20;99.90;;;;;;5212741;28;20200;-45
2023/08/31 04:43:18;;;;;;;5.73;5.27;;;14.20;99.90;;;;;;5220745;28;20248;-43
2023/08/31 04:45:49;;;;;;;6.90;5.37;;;14.20;99.90;;;;;;5215051;28;20252;-42
2023/08/31 04:48:19;;;;;;;11.57;5.10;;;14.30;99.90;;;;;;5219958;28;20242;-43
2023/08/31 04:50:52;;;;;;;6.27;5.77;;;14.30;99.90;;;;;;5213444;28;20230;-43
2023/08/31 04:53:23;;;;;;;7.97;6.10;;;14.30;99.90;;;;;;5231383;28;20237;-43
2023/08/31 04:55:54;;;;;;;5.90;5.40;;;14.30;99.90;;;;;;5220355;28;20466;-42
2023/08/31 04:58:24;;;;;;;7.13;6.13;;;14.30;99.90;;;;;;5221400;28;20184;-43
2023/08/31 05:00:55;;;;;;;9.23;6.50;;;14.30;99.90;;;;;;5224801;28;20251;-43
2023/08/31 05:03:26;;;;;;;6.13;5.63;;;14.20;99.90;;;;;;5223161;28;20250;-43
2023/08/31 05:05:56;;;;;;;5.90;5.33;;;14.20;99.90;;;;;;5226652;28;20214;-43
2023/08/31 05:08:27;;;;;;;18.80;6.40;;;14.20;99.90;;;;;;5222420;28;20266;-44
2023/08/31 05:10:57;;;;;;;9.43;6.77;;;14.20;99.90;;;;;;5201710;28;20199;-44
2023/08/31 05:13:28;;;;;;;9.13;7.03;;;14.30;99.90;;;;;;5241282;28;20179;-43
2023/08/31 05:15:59;;;;;;;7.13;6.40;;;14.30;99.90;;;;;;5225563;28;20187;-44
2023/08/31 05:18:29;;;;;;;9.37;6.83;;;14.30;99.90;;;;;;5235463;28;20543;-44
2023/08/31 05:21:00;;;;;;;8.07;7.27;;;14.30;99.90;;;;;;5225150;28;20260;-44
2023/08/31 05:23:30;;;;;;;8.40;7.33;;;14.40;99.90;;;;;;5224079;28;20183;-43
2023/08/31 05:26:01;;;;;;;10.33;6.57;;;14.50;99.90;;;;;;5226247;28;20215;-43
2023/08/31 05:28:32;;;;;;;8.10;7.30;;;14.50;99.90;;;;;;5222551;28;20190;-44
2023/08/31 05:31:03;;;;;;;5.57;5.07;;;14.60;99.90;;;;;;5221953;28;20262;-43
2023/08/31 05:33:33;;;;;;;9.73;6.93;;;14.80;99.90;;;;;;5210401;28;20175;-44
2023/08/31 05:36:04;;;;;;;7.10;6.03;;;14.70;99.90;;;;;;5208524;28;20461;-43
2023/08/31 05:38:35;;;;;;;10.17;8.70;;;14.80;99.90;;;;;;5214811;28;20883;-44
2023/08/31 05:41:09;;;;;;;12.23;8.07;;;14.80;99.90;;;;;;5210686;28;20622;-45
2023/08/31 05:43:40;;;;;;;7.30;6.50;;;14.70;99.90;;;;;;5211634;28;20178;-43
2023/08/31 05:46:10;;;;;;;7.90;6.67;;;14.70;99.90;;;;;;5217743;28;20505;-43
2023/08/31 05:48:41;;;;;;;8.00;5.70;;;14.70;99.90;;;;;;5208461;28;20221;-43
2023/08/31 05:51:12;;;;;;;6.80;6.20;;;14.70;99.90;;;;;;5221072;28;20202;-45
2023/08/31 05:53:42;;;;;;;7.10;6.40;;;14.70;99.90;;;;;;5217376;28;20202;-44
2023/08/31 05:56:13;;;;;;;9.23;7.33;;;14.70;99.90;;;;;;5234204;28;20318;-45
2023/08/31 05:58:43;;;;;;;7.30;6.60;;;14.70;99.90;;;;;;5222873;28;20183;-43
2023/08/31 06:01:14;;;;;;;6.67;6.03;;;14.70;99.90;;;;;;5226404;22;20307;-45
2023/08/31 06:03:44;;;;;;;6.00;5.50;;;14.80;99.90;;;;;;5221817;28;20186;-45
2023/08/31 06:06:15;;;;;;;7.50;6.80;;;14.70;99.90;;;;;;5221597;28;20570;-45
2023/08/31 06:08:46;;;;;;;5.57;4.87;;;14.90;99.90;;;;;;5221412;28;20274;-45
2023/08/31 06:11:16;;;;;;;6.77;6.03;;;14.90;99.90;;;;;;5218811;28;20210;-46
2023/08/31 06:13:47;;;;;;;12.37;6.60;;;15.00;99.90;;;;;;5220124;28;20666;-45
2023/08/31 06:16:18;;;;;;;8.20;6.70;;;15.20;99.90;;;;;;5224087;28;20191;-46
2023/08/31 06:18:48;;;;;;;8.60;6.07;;;15.20;99.90;;;;;;5222361;28;20603;-46
2023/08/31 06:21:19;;;;;;;5.83;5.30;;;15.40;99.90;;;;;;5222416;28;20289;-44
2023/08/31 06:23:49;;;;;;;9.17;6.53;;;15.40;99.90;;;;;;5225252;28;20194;-46
2023/08/31 06:26:20;;;;;;;6.53;5.80;;;15.50;99.90;;;;;;5225143;28;20528;-44
2023/08/31 06:28:50;;;;;;;6.93;6.33;;;15.50;99.90;;;;;;5222401;28;20187;-45
2023/08/31 06:31:22;;;;;;;6.30;5.70;;;15.40;99.90;;;;;;5226747;28;20257;-44
2023/08/31 06:33:52;;;;;;;7.90;6.27;;;15.50;99.90;;;;;;5218763;28;20669;-45
2023/08/31 06:36:23;;;;;;;5.20;4.80;;;15.40;99.90;;;;;;5218817;28;20484;-45
2023/08/31 06:38:54;;;;;;;6.80;5.70;;;15.50;99.90;;;;;;5227174;28;20184;-44
2023/08/31 06:41:25;;;;;;;6.20;5.60;;;15.50;99.90;;;;;;5224998;28;20850;-45
2023/08/31 06:43:56;;;;;;;7.47;5.30;;;15.60;99.90;;;;;;5218704;28;20490;-46
2023/08/31 06:46:27;;;;;;;13.20;6.30;;;15.70;99.90;;;;;;5228734;28;20249;-46
2023/08/31 06:48:58;;;;;;;6.17;5.30;;;15.80;99.90;;;;;;5226220;28;20179;-44
2023/08/31 06:51:29;;;;;;;7.20;5.10;;;15.90;99.90;;;;;;5228978;28;20965;-46
2023/08/31 06:54:06;;;;;;;8.63;6.97;;;16.30;99.90;;;;;;5219070;28;20180;-47
2023/08/31 06:56:36;;;;;;;11.23;6.40;;;16.40;99.90;;;;;;5215963;28;20236;-45
2023/08/31 06:59:07;;;;;;;4.60;4.10;;;16.40;99.90;;;;;;5223471;28;20448;-45
2023/08/31 07:01:37;;;;;;;5.43;4.93;;;16.60;99.90;;;;;;5227907;28;20620;-45
2023/08/31 07:04:08;;;;;;;6.70;4.60;;;16.80;99.90;;;;;;5229421;28;20237;-46
2023/08/31 07:06:39;;;;;;;4.57;4.17;;;16.80;99.90;;;;;;5225051;28;20203;-46
2023/08/31 07:09:10;;;;;;;5.00;4.63;;;16.90;99.90;;;;;;5225560;28;20183;-46
2023/08/31 07:11:41;;;;;;;6.73;5.00;;;16.70;99.90;;;;;;5208495;28;20456;-46
2023/08/31 07:14:11;;;;;;;7.60;4.50;;;16.60;99.90;;;;;;5230371;28;20279;-46
2023/08/31 07:16:42;;;;;;;4.93;4.53;;;16.50;99.90;;;;;;5223476;28;20190;-46
2023/08/31 07:19:13;;;;;;;5.57;4.53;;;16.40;99.90;;;;;;5228994;28;20183;-45
2023/08/31 07:21:43;;;;;;;7.30;4.97;;;16.40;99.90;;;;;;5229408;28;20218;-44
2023/08/31 07:24:14;;;;;;;4.50;3.90;;;16.40;99.90;;;;;;5230050;28;20233;-46
2023/08/31 07:26:44;;;;;;;6.90;4.10;;;16.40;99.90;;;;;;5225111;28;20202;-45
2023/08/31 07:29:15;;;;;;;13.07;3.93;;;16.40;99.90;;;;;;5225939;28;20201;-47
2023/08/31 07:31:46;;;;;;;3.57;3.37;;;16.50;99.90;;;;;;5226733;28;20206;-46
2023/08/31 07:34:16;;;;;;;7.03;3.63;;;16.50;99.90;;;;;;5232100;28;20181;-46
2023/08/31 07:36:47;;;;;;;5.90;4.60;;;16.50;99.90;;;;;;5225571;28;20183;-45
2023/08/31 07:39:18;;;;;;;7.33;3.30;;;16.60;99.90;;;;;;5226159;28;20199;-45
2023/08/31 07:41:48;;;;;;;6.50;3.13;;;16.60;99.90;;;;;;5246561;28;20206;-45
2023/08/31 07:44:19;;;;;;;4.40;3.23;;;16.70;99.90;;;;;;5232916;28;20186;-51
2023/08/31 07:46:50;;;;;;;8.00;3.63;;;16.80;99.90;;;;;;5227879;28;20205;-46
2023/08/31 07:49:20;;;;;;;9.10;3.07;;;17.00;99.90;;;;;;5234064;28;20182;-46
2023/08/31 07:51:51;;;;;;;5.10;2.97;;;17.00;99.90;;;;;;5228999;28;20179;-46
2023/08/31 07:54:22;;;;;;;5.20;3.47;;;17.10;99.90;;;;;;5228524;28;20190;-46
2023/08/31 07:56:53;;;;;;;3.00;2.80;;;17.20;99.90;;;;;;5217271;28;20183;-45
2023/08/31 07:59:24;;;;;;;3.40;2.70;;;17.40;99.90;;;;;;5231367;28;20447;-46
2023/08/31 08:01:54;;;;;;;7.27;2.83;;;17.70;99.90;;;;;;5227752;28;20191;-45
2023/08/31 08:04:26;;;;;;;6.23;3.90;;;18.00;99.90;;;;;;5230255;28;20258;-45
2023/08/31 08:06:57;;;;;;;2.70;2.40;;;17.90;99.90;;;;;;5234515;28;20573;-45
2023/08/31 08:09:29;;;;;;;4.00;3.23;;;18.20;99.90;;;;;;5235030;28;20432;-44
2023/08/31 08:12:00;;;;;;;4.47;3.13;;;18.60;99.90;;;;;;5221823;28;20198;-44
2023/08/31 08:14:30;;;;;;;2.80;2.60;;;19.10;99.90;;;;;;5222525;28;20467;-45
2023/08/31 08:17:01;;;;;;;2.70;1.93;;;19.10;99.90;;;;;;5230120;28;20665;-45
2023/08/31 08:19:32;;;;;;;3.23;2.33;;;20.50;99.90;;;;;;5211938;28;20244;-44
2023/08/31 08:22:03;;;;;;;2.53;2.33;;;22.60;99.90;;;;;;5228664;28;20248;-44
2023/08/31 08:24:34;;;;;;;2.60;2.33;;;23.80;96.90;;;;;;5229920;28;20951;-48
2023/08/31 08:27:05;;;;;;;1.87;1.80;;;24.70;91.00;;;;;;5219997;28;20465;-45
2023/08/31 08:29:35;;;;;;;1.63;1.53;;;25.40;84.70;;;;;;5223182;28;20215;-46
2023/08/31 08:32:06;;;;;;;3.43;1.60;;;25.70;78.20;;;;;;5224067;28;21605;-46
2023/08/31 08:34:36;;;;;;;3.23;2.17;;;25.10;75.70;;;;;;5223865;28;20186;-45
2023/08/31 08:37:07;;;;;;;5.27;1.40;;;23.80;77.60;;;;;;5230274;28;20269;-45
2023/08/31 08:39:38;;;;;;;3.07;2.50;;;23.30;80.10;;;;;;5221999;28;20202;-44
2023/08/31 08:42:10;;;;;;;3.47;1.33;;;23.00;81.00;;;;;;5231013;28;20190;-45
2023/08/31 08:44:42;;;;;;;4.10;1.93;;;22.30;82.00;;;;;;5227019;28;20198;-45
2023/08/31 08:47:13;;;;;;;3.70;1.20;;;21.70;84.60;;;;;;5228024;28;20444;-46
2023/08/31 08:49:44;;;;;;;1.43;1.30;;;21.30;85.00;;;;;;5234808;28;20538;-46
2023/08/31 08:52:15;;;;;;;4.23;1.77;;;20.90;88.30;;;;;;5234104;28;20434;-44
2023/08/31 08:54:48;;;;;;;2.87;1.27;;;20.30;89.30;;;;;;5213181;28;20512;-46
2023/08/31 08:57:19;;;;;;;1.53;1.43;;;20.00;90.30;;;;;;5233237;28;20458;-46
2023/08/31 08:59:50;;;;;;;2.07;1.40;;;19.70;89.80;;;;;;5209193;28;21043;-46
2023/08/31 09:02:20;;;;;;;1.30;1.20;;;19.60;90.50;;;;;;5233332;28;20174;-46
2023/08/31 09:04:54;;;;;;;2.33;1.40;;;19.50;90.80;;;;;;5228760;28;20694;-45
2023/08/31 09:07:29;;;;;;;6.37;1.97;;;19.30;91.20;;;;;;5224660;28;20249;-45
2023/08/31 09:10:00;;;;;;;1.37;1.23;;;19.10;91.90;;;;;;5226214;28;20474;-45
2023/08/31 09:12:31;;;;;;;1.87;1.60;;;19.10;92.30;;;;;;5221355;28;20430;-46
2023/08/31 09:15:06;;;;;;;4.83;1.77;;;19.10;92.60;;;;;;5225959;28;20558;-46
2023/08/31 09:17:42;;;;;;;2.10;1.50;;;19.10;92.80;;;;;;5228101;28;20526;-45
2023/08/31 09:20:13;;;;;;;1.63;1.40;;;19.30;92.80;;;;;;5221702;28;20452;-46
2023/08/31 09:22:44;;;;;;;3.03;1.73;;;19.50;93.00;;;;;;5226780;28;20431;-46
2023/08/31 09:25:15;;;;;;;6.80;2.20;;;19.70;92.70;;;;;;5229937;28;20457;-46
2023/08/31 09:27:47;;;;;;;8.23;1.70;;;20.10;91.50;;;;;;5223012;28;20506;-46
2023/08/31 09:30:17;;;;;;;1.60;1.50;;;20.40;89.30;;;;;;5207689;28;20204;-45
2023/08/31 09:32:53;;;;;;;1.77;1.67;;;20.20;89.60;;;;;;5238453;28;20440;-46
2023/08/31 09:35:25;;;;;;;4.80;2.10;;;19.70;88.40;;;;;;5227519;28;20181;-46
2023/08/31 09:37:59;;;;;;;4.03;2.03;;;19.50;90.30;;;;;;5229773;28;20437;-46
2023/08/31 09:40:30;;;;;;;2.47;1.83;;;19.10;90.80;;;;;;5229599;28;20452;-44
2023/08/31 09:43:00;;;;;;;2.30;1.53;;;19.00;91.90;;;;;;5230223;28;20441;-44
2023/08/31 09:45:33;;;;;;;3.53;1.83;;;18.90;92.80;;;;;;5219071;28;20211;-44
2023/08/31 09:48:04;;;;;;;4.17;2.70;;;18.70;93.40;;;;;;5224131;28;20357;-46
2023/08/31 09:50:37;;;;;;;4.53;2.43;;;18.70;94.30;;;;;;5220535;28;20453;-46
2023/08/31 09:53:10;;;;;;;3.30;2.30;;;18.90;93.90;;;;;;5208062;28;20448;-46
2023/08/31 09:55:42;;;;;;;5.43;2.20;;;18.70;92.80;;;;;;5226741;28;20524;-44
2023/08/31 09:58:17;;;;;;;4.27;2.70;;;18.80;94.00;;;;;;5224566;28;20445;-45
2023/08/31 10:00:52;;;;;;;6.30;2.33;;;19.20;93.60;;;;;;5228457;28;20493;-45
2023/08/31 10:03:25;;;;;;;4.00;1.53;;;19.50;91.90;;;;;;5205499;28;20957;-44
2023/08/31 10:05:58;;;;;;;2.00;1.70;;;19.60;91.70;;;;;;5228346;28;20462;-47
2023/08/31 10:08:31;;;;;;;3.27;1.83;;;19.80;91.10;;;;;;5228586;28;20442;-45
2023/08/31 10:11:05;;;;;;;5.40;1.50;;;19.90;90.90;;;;;;5228466;28;20455;-44
2023/08/31 10:13:39;;;;;;;1.13;1.13;;;19.50;90.00;;;;;;5231657;28;20482;-44
2023/08/31 10:16:11;;;;;;;1.47;0.90;;;19.50;90.60;;;;;;5231466;28;20440;-45
2023/08/31 10:18:42;;;;;;;4.60;1.37;;;19.60;89.90;;;;;;5229443;28;20437;-46
2023/08/31 10:21:16;;;;;;;0.93;0.93;;;19.50;88.10;;;;;;5220563;28;20472;-45
2023/08/31 10:23:50;;;;;;;1.13;1.10;;;19.30;89.00;;;;;;5228172;28;20181;-45
2023/08/31 10:26:26;;;;;;;1.73;1.40;;;19.40;90.00;;;;;;5229907;28;20456;-45
2023/08/31 10:28:58;;;;;;;2.50;2.17;;;19.70;90.20;;;;;;5223206;28;20794;-45
2023/08/31 10:31:31;;;;;;;2.30;1.43;;;20.10;88.30;;;;;;5231350;28;20555;-45
2023/08/31 10:34:21;;;;;;;2.20;1.97;;;20.30;85.30;;;;;;5224364;28;20678;-45
2023/08/31 10:36:52;;;;;;;5.50;1.60;;;20.00;84.70;;;;;;5229797;28;20778;-45
2023/08/31 10:39:22;;;;;;;6.90;1.93;;;19.60;88.50;;;;;;5208940;28;20437;-46
2023/08/31 10:41:54;;;;;;;8.80;1.47;;;18.00;96.50;;;;;;5211321;28;20179;-45
2023/08/31 10:44:27;;;;;;;5.10;1.70;;;16.90;99.40;;;;;;5229804;28;20183;-46
2023/08/31 10:47:00;;;;;;;2.20;1.63;;;16.10;99.90;;;;;;5226196;28;20460;-46
2023/08/31 10:49:32;;;;;;;5.63;2.80;;;15.40;99.90;;;;;;5230714;28;20437;-46
2023/08/31 10:52:17;;;;;;;4.13;1.80;;;15.00;99.90;;;;;;5226483;28;20492;-46
2023/08/31 10:54:55;;;;;;;1.30;1.30;;;14.80;99.90;;;;;;5222666;28;20992;-48
2023/08/31 10:57:34;;;;;;;8.17;2.20;;;14.80;99.90;;;;;;5227251;28;20524;-49
2023/08/31 11:00:06;;;;;;;3.50;2.60;;;14.80;99.90;;;;;;5230415;28;20468;-46
2023/08/31 11:02:41;;;;;;;4.10;1.77;;;15.00;99.90;;;;;;5226574;28;20498;-46
2023/08/31 11:05:16;;;;;;;1.87;1.77;;;14.90;99.90;;;;;;5234579;28;20548;-46
2023/08/31 11:07:48;;;;;;;3.20;2.90;;;15.00;99.90;;;;;;5228846;28;20459;-47
2023/08/31 11:10:23;;;;;;;5.13;2.97;;;15.00;99.90;;;;;;5233905;28;20457;-47
2023/08/31 11:12:56;;;;;;;2.47;2.27;;;15.00;99.90;;;;;;5235782;28;20428;-46
2023/08/31 11:15:29;;;;;;;2.60;2.30;;;15.10;99.90;;;;;;5233518;28;20436;-47
2023/08/31 11:18:00;;;;;;;6.20;3.20;;;15.30;99.90;;;;;;5219422;28;20441;-46
2023/08/31 11:20:31;;;;;;;5.17;2.03;;;15.50;99.90;;;;;;5214913;28;20453;-46
2023/08/31 11:23:02;;;;;;;3.43;2.53;;;15.70;99.90;;;;;;5227582;28;20187;-46
2023/08/31 11:25:33;;;;;;;5.50;3.03;;;16.00;99.90;;;;;;5223227;28;20218;-46
2023/08/31 11:28:07;;;;;;;3.97;2.50;;;16.30;99.90;;;;;;5246654;28;20860;-45
2023/08/31 11:30:37;;;;;;;4.60;3.00;;;16.70;99.90;;;;;;5233343;28;20460;-45
2023/08/31 11:33:11;;;;;;;2.43;2.33;;;17.10;99.90;;;;;;5227318;28;20441;-47
2023/08/31 11:35:44;;;;;;;2.20;2.10;;;17.40;99.90;;;;;;5224148;28;21337;-46
2023/08/31 11:38:16;;;;;;;5.87;2.37;;;17.70;99.90;;;;;;5231033;28;21021;-46
2023/08/31 11:40:46;;;;;;;6.67;3.40;;;17.90;99.90;;;;;;5228459;28;21530;-45
2023/08/31 11:43:19;;;;;;;10.13;3.13;;;17.90;99.90;;;;;;5233902;28;20679;-46
2023/08/31 11:45:50;;;;;;;4.40;2.20;;;17.80;99.90;;;;;;5225839;28;20198;-48
2023/08/31 11:48:21;;;;;;;3.43;2.70;;;17.70;99.90;;;;;;5226894;28;20448;-46
2023/08/31 11:50:52;;;;;;;3.13;2.37;;;17.60;99.90;;;;;;5222108;28;20455;-45
2023/08/31 11:53:24;;;;;;;10.40;3.33;;;17.50;99.90;;;;;;5224113;28;20445;-49
2023/08/31 11:55:54;;;;;;;9.80;4.70;;;17.20;99.90;;;;;;5219109;28;20441;-46
2023/08/31 11:58:27;;;;;;;4.40;3.43;;;17.10;99.90;;;;;;5226654;28;20499;-48
2023/08/31 12:00:59;;;;;;;5.83;2.40;;;16.80;99.90;;;;;;5228009;28;20215;-48
2023/08/31 12:03:43;;;;;;;2.20;2.00;;;16.60;99.90;;;;;;5227969;28;20535;-47
2023/08/31 12:06:20;;;;;;;2.93;2.60;;;16.40;99.90;;;;;;5221967;28;20556;-47
2023/08/31 12:08:51;;;;;;;4.30;2.27;;;16.20;99.90;;;;;;5225607;28;20916;-45
2023/08/31 12:11:21;;;;;;;2.20;2.10;;;16.00;99.90;;;;;;5223670;28;20537;-46
2023/08/31 12:13:52;;;;;;;2.23;1.97;;;15.90;99.90;;;;;;5226569;28;20631;-47
2023/08/31 12:16:24;;;;;;;2.93;2.73;;;16.20;99.90;;;;;;5231495;28;20214;-45
2023/08/31 12:18:59;;;;;;;2.30;2.17;;;16.70;99.90;;;;;;5232036;28;20523;-45
2023/08/31 12:21:33;;;;;;;2.70;2.50;;;17.20;99.90;;;;;;5219682;28;20459;-48
2023/08/31 12:24:05;;;;;;;5.90;3.37;;;17.50;99.90;;;;;;5221243;28;20527;-45
2023/08/31 12:26:36;;;;;;;3.53;3.23;;;17.90;99.90;;;;;;5231889;28;20526;-46
2023/08/31 12:29:07;;;;;;;4.17;2.50;;;18.20;99.90;;;;;;5231289;28;20437;-47
2023/08/31 12:31:38;;;;;;;3.33;2.00;;;18.50;99.90;;;;;;5233231;28;20703;-46
2023/08/31 12:34:08;;;;;;;2.50;2.40;;;18.80;99.90;;;;;;5240579;28;20206;-47
2023/08/31 12:36:41;;;;;;;3.27;2.67;;;19.00;99.90;;;;;;5234938;28;20179;-48
2023/08/31 12:39:12;;;;;;;7.10;4.40;;;19.20;99.90;;;;;;5238954;28;20542;-46
2023/08/31 12:41:42;;;;;;;3.73;2.57;;;19.00;99.90;;;;;;5239337;28;20552;-44
2023/08/31 12:44:13;;;;;;;4.63;2.50;;;19.00;99.90;;;;;;5230053;28;20429;-46
2023/08/31 12:46:43;;;;;;;4.50;2.20;;;19.00;99.90;;;;;;5231255;28;20198;-45
2023/08/31 12:49:14;;;;;;;2.63;2.43;;;18.90;99.90;;;;;;5232864;28;20627;-45
2023/08/31 12:51:45;;;;;;;2.13;2.03;;;18.90;99.90;;;;;;5227414;28;20305;-47
2023/08/31 12:54:15;;;;;;;2.07;1.97;;;18.90;99.90;;;;;;5215359;28;26805;-47
2023/08/31 12:56:46;;;;;;;3.60;2.07;;;18.90;99.90;;;;;;5209037;28;20184;-47
2023/08/31 12:59:19;;;;;;;3.40;1.90;;;19.10;99.90;;;;;;5211332;28;20187;-44
2023/08/31 13:01:50;;;;;;;2.90;1.60;;;19.10;99.90;;;;;;5212440;28;20614;-46
2023/08/31 13:04:21;;;;;;;3.00;2.77;;;19.30;99.90;;;;;;5208028;28;20433;-45
2023/08/31 13:06:51;;;;;;;2.87;1.87;;;19.30;99.90;;;;;;5230327;28;20555;-46
2023/08/31 13:09:22;;;;;;;1.30;1.20;;;19.50;99.90;;;;;;5218095;28;20192;-45